createdAt,value
2018-04-02T00:02:19.990Z,28.40
2018-04-02T00:07:10.903Z,30.30
2018-04-02T00:12:08.673Z,31.10
2018-04-02T00:17:00.332Z,27.30
2018-04-02T00:21:51.230Z,29.77
2018-04-02T00:26:42.131Z,22.90
2018-04-02T00:31:33.032Z,28.53
2018-04-02T00:36:23.939Z,28.90
2018-04-02T00:41:15.584Z,33.00
2018-04-02T00:46:06.935Z,35.37
2018-04-02T00:50:57.835Z,31.93
2018-04-02T00:55:48.727Z,25.00
2018-04-02T01:00:39.617Z,29.40
2018-04-02T01:05:30.506Z,20.87
2018-04-02T01:10:22.212Z,24.60
2018-04-02T01:15:13.120Z,30.07
2018-04-02T01:20:04.007Z,26.43
2018-04-02T01:24:54.911Z,32.50
2018-04-02T01:29:45.811Z,32.83
2018-04-02T01:34:37.451Z,27.87
2018-04-02T01:39:29.086Z,23.13
2018-04-02T01:44:19.984Z,37.27
2018-04-02T01:49:10.875Z,26.60
2018-04-02T01:54:02.511Z,35.90
2018-04-02T01:58:53.437Z,32.53
2018-04-02T02:03:45.353Z,30.70
2018-04-02T02:08:36.307Z,30.40
2018-04-02T02:13:27.947Z,30.80
2018-04-02T02:18:18.851Z,33.47
2018-04-02T02:23:09.759Z,40.70
2018-04-02T02:28:01.410Z,29.37
2018-04-02T02:32:53.056Z,32.10
2018-04-02T02:37:44.710Z,27.10
2018-04-02T02:42:36.422Z,38.70
2018-04-02T02:47:27.343Z,34.17
2018-04-02T02:52:18.261Z,36.27
2018-04-02T02:57:09.159Z,32.00
2018-04-02T03:02:00.820Z,33.03
2018-04-02T03:06:51.718Z,35.03
2018-04-02T03:11:42.631Z,35.07
2018-04-02T03:16:33.528Z,34.83
2018-04-02T03:21:24.440Z,34.20
2018-04-02T03:26:16.031Z,36.97
2018-04-02T03:31:07.684Z,44.57
2018-04-02T03:35:59.355Z,33.07
2018-04-02T03:40:50.323Z,34.23
2018-04-02T03:45:41.234Z,41.33
2018-04-02T03:50:32.148Z,33.30
2018-04-02T03:55:23.800Z,36.50
2018-04-02T04:00:15.453Z,34.03
2018-04-02T04:05:07.113Z,31.23
2018-04-02T04:09:58.758Z,30.40
2018-04-02T04:14:49.695Z,33.80
2018-04-02T04:19:41.352Z,38.03
2018-04-02T04:24:33.021Z,36.30
2018-04-02T04:29:24.688Z,38.90
2018-04-02T04:34:15.604Z,36.57
2018-04-02T04:39:06.511Z,36.50
2018-04-02T04:43:58.285Z,37.30
2018-04-02T04:48:49.200Z,32.87
2018-04-02T04:53:40.861Z,35.50
2018-04-02T04:58:31.782Z,29.70
2018-04-02T05:03:23.428Z,33.57
2018-04-02T05:08:15.087Z,30.50
2018-04-02T05:13:06.743Z,41.20
2018-04-02T05:17:57.651Z,38.67
2018-04-02T05:22:49.307Z,36.47
2018-04-02T05:27:40.216Z,35.20
2018-04-02T05:32:31.857Z,38.87
2018-04-02T05:37:22.754Z,23.33
2018-04-02T05:42:14.400Z,42.27
2018-04-02T05:47:05.302Z,34.57
2018-04-02T05:51:56.207Z,44.63
2018-04-02T05:56:47.115Z,35.27
2018-04-02T06:01:38.762Z,37.77
2018-04-02T06:06:30.406Z,42.10
2018-04-02T06:11:21.310Z,30.27
2018-04-02T06:16:12.223Z,40.90
2018-04-02T06:21:03.135Z,35.07
2018-04-02T06:25:54.053Z,31.07
2018-04-02T06:30:45.708Z,31.90
2018-04-02T06:35:43.567Z,36.60
2018-04-02T06:40:34.475Z,33.07
2018-04-02T06:45:25.383Z,25.13
2018-04-02T06:50:16.294Z,22.93
2018-04-02T06:55:07.208Z,14.90
2018-04-02T06:59:58.868Z,15.17
2018-04-02T07:04:49.811Z,18.73
2018-04-02T07:09:40.714Z,22.23
2018-04-02T07:14:31.630Z,11.40
2018-04-02T07:19:22.530Z,18.03
2018-04-02T07:24:13.452Z,10.63
2018-04-02T07:29:04.411Z,18.50
2018-04-02T07:33:55.316Z,7.67
2018-04-02T07:38:46.232Z,16.77
2018-04-02T07:43:37.146Z,12.27
2018-04-02T07:48:28.051Z,11.30
2018-04-02T07:53:18.971Z,10.90
2018-04-02T07:58:09.878Z,13.77
2018-04-02T08:03:00.788Z,13.53
2018-04-02T08:07:52.495Z,12.57
2018-04-02T08:12:43.410Z,16.37
2018-04-02T08:17:34.339Z,9.73
2018-04-02T08:22:25.415Z,16.33
2018-04-02T08:27:16.396Z,14.20
2018-04-02T08:32:07.303Z,16.10
2018-04-02T08:36:58.199Z,10.43
2018-04-02T08:41:49.091Z,14.13
2018-04-02T08:46:39.978Z,15.90
2018-04-02T08:51:31.612Z,10.70
2018-04-02T08:56:22.512Z,8.53
2018-04-02T09:01:13.411Z,8.73
2018-04-02T09:06:04.311Z,11.63
2018-04-02T09:10:55.231Z,7.53
2018-04-02T09:15:46.132Z,7.13
2018-04-02T09:20:37.040Z,6.57
2018-04-02T09:25:27.975Z,6.80
2018-04-02T09:30:18.879Z,6.20
2018-04-02T09:35:10.551Z,5.17
2018-04-02T09:40:01.500Z,8.73
2018-04-02T09:44:52.403Z,7.30
2018-04-02T09:49:43.382Z,7.03
2018-04-02T09:54:34.416Z,7.10
2018-04-02T09:59:25.623Z,6.73
2018-04-02T10:04:16.520Z,6.47
2018-04-02T10:09:07.475Z,7.93
2018-04-02T10:13:58.383Z,5.73
2018-04-02T10:18:49.331Z,6.57
2018-04-02T10:23:40.248Z,6.00
2018-04-02T10:28:31.192Z,5.27
2018-04-02T10:33:22.395Z,4.60
2018-04-02T10:38:14.120Z,3.90
2018-04-02T10:43:05.048Z,3.70
2018-04-02T10:47:56.067Z,4.10
2018-04-02T10:52:47.011Z,4.70
2018-04-02T10:57:37.947Z,4.20
2018-04-02T11:02:28.892Z,4.37
2018-04-02T11:07:19.802Z,4.90
2018-04-02T11:12:10.716Z,7.27
2018-04-02T11:17:01.659Z,12.63
2018-04-02T11:21:52.576Z,9.00
2018-04-02T11:26:43.499Z,9.10
2018-04-02T11:31:34.408Z,9.17
2018-04-02T11:36:26.059Z,11.30
2018-04-02T11:41:17.718Z,10.00
2018-04-02T11:46:08.723Z,10.60
2018-04-02T11:51:00.432Z,11.97
2018-04-02T11:55:51.372Z,10.40
2018-04-02T12:00:42.322Z,10.83
2018-04-02T12:05:33.986Z,13.60
2018-04-02T12:10:24.895Z,13.13
2018-04-02T12:15:16.548Z,12.37
2018-04-02T12:20:08.203Z,15.30
2018-04-02T12:24:59.577Z,19.10
2018-04-02T12:29:50.604Z,14.47
2018-04-02T12:34:41.527Z,16.70
2018-04-02T12:39:32.439Z,14.50
2018-04-02T12:44:23.350Z,14.97
2018-04-02T12:49:14.288Z,11.37
2018-04-02T12:54:05.207Z,8.40
2018-04-02T12:58:56.124Z,5.57
2018-04-02T13:03:47.040Z,5.23
2018-04-02T13:08:37.951Z,7.93
2018-04-02T13:13:28.868Z,6.30
2018-04-02T13:18:19.778Z,7.30
2018-04-02T13:23:10.696Z,9.10
2018-04-02T13:28:01.604Z,12.00
2018-04-02T13:32:52.648Z,10.60
2018-04-02T13:37:43.555Z,12.97
2018-04-02T13:42:34.468Z,13.60
2018-04-02T13:47:25.366Z,14.87
2018-04-02T13:52:16.270Z,14.40
2018-04-02T13:57:07.907Z,13.87
2018-04-02T14:01:59.560Z,16.73
2018-04-02T14:06:50.459Z,15.57
2018-04-02T14:11:42.095Z,19.30
2018-04-02T14:16:33.830Z,18.20
2018-04-02T14:21:25.471Z,21.77
2018-04-02T14:26:17.131Z,21.57
2018-04-02T14:31:08.393Z,21.17
2018-04-02T14:35:59.324Z,25.30
2018-04-02T14:40:50.833Z,25.20
2018-04-02T14:45:41.738Z,29.60
2018-04-02T14:50:32.639Z,23.40
2018-04-02T14:55:24.286Z,28.63
2018-04-02T15:00:15.189Z,27.37
2018-04-02T15:05:06.155Z,33.03
2018-04-02T15:09:57.063Z,34.47
2018-04-02T15:14:47.979Z,30.13
2018-04-02T15:19:38.882Z,29.70
2018-04-02T15:24:29.800Z,30.03
2018-04-02T15:29:20.764Z,33.60
2018-04-02T15:34:12.371Z,33.17
2018-04-02T15:39:04.012Z,36.30
2018-04-02T15:43:55.642Z,29.87
2018-04-02T15:48:46.541Z,32.73
2018-04-02T15:53:38.191Z,34.33
2018-04-02T15:58:29.090Z,31.20
2018-04-02T16:03:20.029Z,33.70
2018-04-02T16:08:10.955Z,33.67
2018-04-02T16:13:01.859Z,34.40
2018-04-02T16:17:52.755Z,41.00
2018-04-02T16:22:43.720Z,47.23
2018-04-02T16:27:34.708Z,35.80
2018-04-02T16:32:26.353Z,34.27
2018-04-02T16:37:17.251Z,42.87
2018-04-02T16:42:08.180Z,46.87
2018-04-02T16:46:59.827Z,53.77
2018-04-02T16:51:51.527Z,51.90
2018-04-02T16:56:42.467Z,44.30
2018-04-02T17:01:33.617Z,45.23
2018-04-02T17:06:31.543Z,44.93
2018-04-02T17:11:22.487Z,49.53
2018-04-02T17:16:13.619Z,47.63
2018-04-02T17:21:04.798Z,42.33
2018-04-02T17:25:55.776Z,44.97
2018-04-02T17:30:46.734Z,40.10
2018-04-02T17:35:38.415Z,38.63
2018-04-02T17:40:29.359Z,40.70
2018-04-02T17:45:20.501Z,43.70
2018-04-02T17:50:11.536Z,43.50
2018-04-02T17:55:02.521Z,35.40
2018-04-02T17:59:53.695Z,44.63
2018-04-02T18:04:45.340Z,40.67
2018-04-02T18:09:36.987Z,39.00
2018-04-02T18:14:27.875Z,40.67
2018-04-02T18:19:18.788Z,38.03
2018-04-02T18:24:09.704Z,43.93
2018-04-02T18:29:01.391Z,40.87
2018-04-02T18:33:52.299Z,43.80
2018-04-02T18:38:43.211Z,37.70
2018-04-02T18:43:34.182Z,43.00
2018-04-02T18:48:25.091Z,45.33
2018-04-02T18:53:15.996Z,38.90
2018-04-02T18:58:06.921Z,37.83
2018-04-02T19:02:58.619Z,39.73
2018-04-02T19:07:49.615Z,46.20
2018-04-02T19:12:42.456Z,40.20
2018-04-02T19:17:33.367Z,35.87
2018-04-02T19:22:24.271Z,40.00
2018-04-02T19:27:15.906Z,38.83
2018-04-02T19:32:07.552Z,47.27
2018-04-02T19:36:59.256Z,37.07
2018-04-02T19:41:50.155Z,37.50
2018-04-02T19:46:41.047Z,35.50
2018-04-02T19:51:31.942Z,40.07
2018-04-02T19:56:22.936Z,38.40
2018-04-02T20:01:13.844Z,33.80
2018-04-02T20:06:11.803Z,39.93
2018-04-02T20:11:03.435Z,38.03
2018-04-02T20:15:54.336Z,36.93
2018-04-02T20:20:45.233Z,35.70
2018-04-02T20:25:36.156Z,40.03
2018-04-02T20:30:27.905Z,39.80
2018-04-02T20:35:18.819Z,36.60
2018-04-02T20:40:09.723Z,37.30
2018-04-02T20:45:00.628Z,38.13
2018-04-02T20:49:51.531Z,39.47
2018-04-02T20:54:43.180Z,38.40
2018-04-02T20:59:34.828Z,37.67
2018-04-02T21:04:25.740Z,41.53
2018-04-02T21:09:16.655Z,38.30
2018-04-02T21:14:07.551Z,40.93
2018-04-02T21:18:58.450Z,39.40
2018-04-02T21:23:49.359Z,35.23
2018-04-02T21:28:40.263Z,37.80
2018-04-02T21:33:31.165Z,42.23
2018-04-02T21:38:22.074Z,47.00
2018-04-02T21:43:13.732Z,41.30
2018-04-02T21:48:04.634Z,45.63
2018-04-02T21:52:55.536Z,39.87
2018-04-02T21:57:46.447Z,44.03
2018-04-02T22:02:37.390Z,42.57
2018-04-02T22:07:30.163Z,42.30
2018-04-02T22:12:21.058Z,39.23
2018-04-02T22:17:12.015Z,42.50
2018-04-02T22:22:03.208Z,38.00
2018-04-02T22:26:54.856Z,41.10
2018-04-02T22:31:45.764Z,44.83
2018-04-02T22:36:37.421Z,39.23
2018-04-02T22:41:29.155Z,35.23
2018-04-02T22:46:20.112Z,35.27
2018-04-02T22:51:11.025Z,32.97
2018-04-02T22:56:02.251Z,30.40
2018-04-02T23:00:53.261Z,42.37
2018-04-02T23:05:44.164Z,35.40
2018-04-02T23:10:35.103Z,33.17
2018-04-02T23:15:26.015Z,34.60
2018-04-02T23:20:16.914Z,36.37
2018-04-02T23:30:26.392Z,34.27
2018-04-02T23:35:17.292Z,31.47
2018-04-02T23:40:08.191Z,34.73
2018-04-02T23:44:59.088Z,33.03
2018-04-02T23:49:50.795Z,33.63
2018-04-02T23:54:41.695Z,32.60
2018-04-02T23:59:32.653Z,37.47
